Time,TemperatureF,DewpointF,PressureIn,WindDirection,WindDirectionDegrees,WindSpeedMPH,WindSpeedGustMPH,Humidity,HourlyPrecipIn,Conditions,Clouds,dailyrainin,SoftwareType,DateUTC
2013-03-22 00:02:00,24.0,2.0,29.93,NNW,347,2.0,3.0,38,0.00,,,0.16,,2013-03-22 06:02:00,
2013-03-22 00:12:00,24.0,2.0,29.93,NNW,347,2.0,3.0,38,0.00,,,0.16,,2013-03-22 06:12:00,
2013-03-22 00:21:00,23.0,1.0,29.94,North,349,5.0,6.0,37,0.00,,,0.16,,2013-03-22 06:21:00,
2013-03-22 00:32:00,22.0,0.0,29.93,NNW,348,3.0,3.0,38,0.00,,,0.16,,2013-03-22 06:32:00,
2013-03-22 00:41:00,22.0,0.0,29.93,NNW,348,3.0,3.0,38,0.00,,,0.16,,2013-03-22 06:41:00,
2013-03-22 00:52:00,22.0,0.0,29.93,North,0,2.0,3.0,37,0.00,,,0.16,,2013-03-22 06:52:00,
2013-03-22 01:02:00,21.0,0.0,29.93,North,0,1.0,2.0,39,0.00,,,0.16,,2013-03-22 07:02:00,
2013-03-22 01:11:00,21.0,0.0,29.93,North,0,1.0,2.0,39,0.00,,,0.16,,2013-03-22 07:11:00,
2013-03-22 01:21:00,21.0,-2.0,29.93,North,0,1.0,3.0,36,0.00,,,0.16,,2013-03-22 07:21:00,
2013-03-22 01:32:00,22.0,0.0,29.92,North,3,3.0,8.0,38,0.00,,,0.16,,2013-03-22 07:32:00,
2013-03-22 01:41:00,22.0,0.0,29.92,North,3,3.0,8.0,38,0.00,,,0.16,,2013-03-22 07:41:00,
2013-03-22 01:52:00,21.0,-1.0,29.91,North,2,6.0,9.0,38,0.00,,,0.16,,2013-03-22 07:52:00,
2013-03-22 02:02:00,22.0,0.0,29.91,NNW,343,6.0,10.0,37,0.00,,,0.16,,2013-03-22 08:02:00,
2013-03-22 02:12:00,22.0,0.0,29.91,NNW,343,6.0,10.0,37,0.00,,,0.16,,2013-03-22 08:12:00,
2013-03-22 02:21:00,22.0,0.0,29.91,North,354,7.0,12.0,37,0.00,,,0.16,,2013-03-22 08:21:00,
2013-03-22 02:32:00,21.0,-1.0,29.91,North,354,7.0,8.0,37,0.00,,,0.16,,2013-03-22 08:32:00,
2013-03-22 02:41:00,21.0,-1.0,29.91,North,354,7.0,8.0,37,0.00,,,0.16,,2013-03-22 08:41:00,
2013-03-22 02:51:00,21.0,-1.0,29.90,North,6,6.0,7.0,37,0.00,,,0.16,,2013-03-22 08:51:00,
2013-03-22 03:02:00,20.0,-2.0,29.90,North,359,6.0,9.0,37,0.00,,,0.16,,2013-03-22 09:02:00,
2013-03-22 03:11:00,20.0,-2.0,29.90,North,359,6.0,9.0,37,0.00,,,0.16,,2013-03-22 09:11:00,
2013-03-22 03:22:00,20.0,-3.0,29.90,North,357,6.0,9.0,36,0.00,,,0.16,,2013-03-22 09:22:00,
2013-03-22 03:32:00,20.0,-3.0,29.90,North,353,8.0,9.0,35,0.00,,,0.16,,2013-03-22 09:32:00,
2013-03-22 03:42:00,20.0,-3.0,29.90,North,353,8.0,9.0,35,0.00,,,0.16,,2013-03-22 09:42:00,
2013-03-22 03:53:00,20.0,-3.0,29.89,North,354,6.0,10.0,35,0.00,,,0.16,,2013-03-22 09:53:00,
2013-03-22 04:03:00,20.0,-4.0,29.89,North,5,5.0,8.0,33,0.00,,,0.16,,2013-03-22 10:03:00,
2013-03-22 04:11:00,20.0,-4.0,29.89,North,5,5.0,8.0,33,0.00,,,0.16,,2013-03-22 10:11:00,
2013-03-22 04:22:00,20.0,-4.0,29.89,North,7,5.0,6.0,34,0.00,,,0.16,,2013-03-22 10:22:00,
2013-03-22 04:32:00,19.0,-5.0,29.88,North,356,5.0,7.0,34,0.00,,,0.16,,2013-03-22 10:32:00,
2013-03-22 04:42:00,19.0,-5.0,29.88,North,356,5.0,7.0,34,0.00,,,0.16,,2013-03-22 10:42:00,
2013-03-22 04:52:00,20.0,-4.0,29.88,North,351,6.0,10.0,33,0.00,,,0.16,,2013-03-22 10:52:00,
2013-03-22 05:02:00,20.0,-4.0,29.88,North,352,3.0,5.0,34,0.00,,,0.16,,2013-03-22 11:02:00,
2013-03-22 05:11:00,20.0,-4.0,29.88,North,352,3.0,5.0,34,0.00,,,0.16,,2013-03-22 11:11:00,
2013-03-22 05:22:00,19.0,-1.0,29.88,NW,325,2.0,3.0,41,0.00,,,0.16,,2013-03-22 11:22:00,
2013-03-22 05:32:00,19.0,-5.0,29.88,North,354,5.0,7.0,34,0.00,,,0.16,,2013-03-22 11:32:00,
2013-03-22 05:41:00,19.0,-5.0,29.88,North,354,5.0,7.0,34,0.00,,,0.16,,2013-03-22 11:41:00,
2013-03-22 05:52:00,20.0,-4.0,29.88,North,9,5.0,6.0,33,0.00,,,0.16,,2013-03-22 11:52:00,
2013-03-22 06:02:00,20.0,-4.0,29.88,North,5,5.0,8.0,33,0.00,,,0.16,,2013-03-22 12:02:00,
2013-03-22 06:12:00,20.0,-5.0,29.88,North,8,6.0,10.0,32,0.00,,,0.16,,2013-03-22 12:12:00,
2013-03-22 06:21:00,20.0,-5.0,29.88,North,8,6.0,10.0,32,0.00,,,0.16,,2013-03-22 12:21:00,
2013-03-22 06:32:00,20.0,-5.0,29.88,North,10,6.0,8.0,32,0.00,,,0.16,,2013-03-22 12:32:00,
2013-03-22 06:41:00,20.0,-5.0,29.88,North,10,6.0,8.0,32,0.00,,,0.16,,2013-03-22 12:41:00,
2013-03-22 06:51:00,20.0,-5.0,29.89,North,0,3.0,3.0,32,0.00,,,0.16,,2013-03-22 12:51:00,
2013-03-22 07:02:00,21.0,-3.0,29.89,NNE,27,2.0,3.0,34,0.00,,,0.16,,2013-03-22 13:02:00,
2013-03-22 07:11:00,21.0,-3.0,29.89,NNE,27,2.0,3.0,34,0.00,,,0.16,,2013-03-22 13:11:00,
2013-03-22 07:21:00,20.0,-3.0,29.89,NNE,27,0.0,0.0,35,0.00,,,0.16,,2013-03-22 13:21:00,
2013-03-22 07:32:00,21.0,-2.0,29.89,NW,317,0.0,1.0,36,0.00,,,0.16,,2013-03-22 13:32:00,
2013-03-22 07:41:00,21.0,-2.0,29.89,NW,317,0.0,1.0,36,0.00,,,0.16,,2013-03-22 13:41:00,
2013-03-22 07:52:00,21.0,-2.0,29.89,NW,317,0.0,0.0,35,0.00,,,0.16,,2013-03-22 13:52:00,
2013-03-22 08:02:00,22.0,0.0,29.90,NW,316,1.0,3.0,37,0.00,,,0.16,,2013-03-22 14:02:00,
2013-03-22 08:11:00,22.0,0.0,29.90,NW,316,1.0,3.0,37,0.00,,,0.16,,2013-03-22 14:11:00,
2013-03-22 08:21:00,23.0,-1.0,29.90,East,80,0.0,0.0,35,0.00,,,0.16,,2013-03-22 14:21:00,
2013-03-22 08:32:00,23.0,0.0,29.90,East,80,0.0,0.0,36,0.00,,,0.16,,2013-03-22 14:32:00,
2013-03-22 08:42:00,23.0,0.0,29.90,East,80,0.0,0.0,36,0.00,,,0.16,,2013-03-22 14:42:00,
2013-03-22 08:52:00,24.0,1.0,29.90,West,279,0.0,0.0,36,0.00,,,0.16,,2013-03-22 14:52:00,
2013-03-22 09:02:00,28.0,2.0,29.90,West,280,0.0,0.0,32,0.00,,,0.16,,2013-03-22 15:02:00,
2013-03-22 09:11:00,28.0,2.0,29.90,West,280,0.0,0.0,32,0.00,,,0.16,,2013-03-22 15:11:00,
2013-03-22 09:21:00,29.0,3.0,29.91,West,280,0.0,0.0,32,0.00,,,0.16,,2013-03-22 15:21:00,
2013-03-22 09:32:00,32.0,6.0,29.90,West,274,1.0,3.0,33,0.00,,,0.15,,2013-03-22 15:32:00,
2013-03-22 09:42:00,32.0,6.0,29.90,West,274,1.0,3.0,33,0.00,,,0.15,,2013-03-22 15:42:00,
2013-03-22 09:52:00,33.0,7.0,29.91,WNW,291,1.0,10.0,33,0.00,,,0.15,,2013-03-22 15:52:00,
2013-03-22 10:02:00,34.0,8.0,29.90,West,271,7.0,9.0,33,0.00,,,0.09,,2013-03-22 16:02:00,
2013-03-22 10:12:00,34.0,10.0,29.90,WSW,251,6.0,12.0,36,0.00,,,0.07,,2013-03-22 16:12:00,
2013-03-22 10:22:00,34.0,10.0,29.90,WSW,251,6.0,12.0,36,0.00,,,0.07,,2013-03-22 16:22:00,
2013-03-22 10:42:00,39.0,14.0,29.90,South,187,1.0,2.0,35,0.00,,,0.03,,2013-03-22 16:42:00,
2013-03-22 11:02:00,41.0,14.0,29.89,ESE,122,5.0,7.0,33,0.00,,,0.02,,2013-03-22 17:02:00,
2013-03-22 11:12:00,41.0,15.0,29.90,SSW,203,3.0,3.0,34,0.00,,,0.02,,2013-03-22 17:12:00,
2013-03-22 11:32:00,42.0,15.0,29.89,ESE,108,3.0,6.0,33,0.00,,,0.01,,2013-03-22 17:32:00,
2013-03-22 11:52:00,42.0,15.0,29.89,ESE,118,7.0,8.0,33,0.00,,,0.01,,2013-03-22 17:52:00,
2013-03-22 12:02:00,43.0,16.0,29.89,ESE,106,2.0,3.0,33,0.00,,,0.01,,2013-03-22 18:02:00,
2013-03-22 12:21:00,44.0,15.0,29.88,WSW,253,3.0,5.0,30,0.00,,,0.01,,2013-03-22 18:21:00,
2013-03-22 12:32:00,44.0,15.0,29.87,ESE,122,3.0,7.0,31,0.00,,,0.01,,2013-03-22 18:32:00,
2013-03-22 12:52:00,45.0,15.0,29.87,SSE,151,9.0,14.0,30,0.00,,,0.01,,2013-03-22 18:52:00,
2013-03-22 13:02:00,47.0,16.0,29.85,SSW,194,7.0,8.0,28,0.00,,,0.01,,2013-03-22 19:02:00,
2013-03-22 13:11:00,49.0,16.0,29.85,SE,144,10.0,25.0,27,0.00,,,0.00,,2013-03-22 19:11:00,
2013-03-22 13:32:00,46.0,13.0,29.85,SSE,153,9.0,16.0,26,0.00,,,0.00,,2013-03-22 19:32:00,
2013-03-22 13:51:00,46.0,13.0,29.85,SW,235,7.0,13.0,26,0.00,,,0.00,,2013-03-22 19:51:00,
2013-03-22 14:01:00,46.0,10.0,29.84,SSW,213,9.0,13.0,23,0.00,,,0.00,,2013-03-22 20:01:00,
2013-03-22 14:22:00,48.0,10.0,29.83,SSE,150,12.0,15.0,21,0.00,,,0.00,,2013-03-22 20:22:00,
2013-03-22 14:32:00,48.0,10.0,29.82,ESE,104,2.0,6.0,21,0.00,,,0.00,,2013-03-22 20:32:00,
2013-03-22 14:51:00,49.0,10.0,29.82,SE,142,7.0,14.0,20,0.00,,,0.00,,2013-03-22 20:51:00,
2013-03-22 15:02:00,48.0,10.0,29.81,SW,219,5.0,8.0,21,0.00,,,0.00,,2013-03-22 21:02:00,
2013-03-22 15:11:00,47.0,7.0,29.81,SW,229,15.0,25.0,19,0.00,,,0.00,,2013-03-22 21:11:00,
2013-03-22 15:32:00,46.0,7.0,29.80,SSE,161,6.0,12.0,20,0.00,,,0.00,,2013-03-22 21:32:00,
2013-03-22 16:02:00,48.0,7.0,29.80,WSW,251,3.0,3.0,18,0.00,,,0.00,,2013-03-22 22:02:00,
2013-03-22 16:22:00,48.0,5.0,29.80,SW,223,5.0,5.0,17,0.00,,,0.00,,2013-03-22 22:22:00,
2013-03-22 16:32:00,47.0,-1.0,29.80,South,183,5.0,14.0,13,0.00,,,0.00,,2013-03-22 22:32:00,
2013-03-22 16:42:00,47.0,-1.0,29.80,South,183,5.0,14.0,13,0.00,,,0.00,,2013-03-22 22:42:00,
2013-03-22 16:52:00,46.0,-4.0,29.80,NW,307,3.0,23.0,12,0.00,,,0.00,,2013-03-22 22:52:00,
2013-03-22 17:02:00,46.0,-2.0,29.80,WNW,297,1.0,3.0,13,0.00,,,0.00,,2013-03-22 23:02:00,
2013-03-22 17:11:00,46.0,-2.0,29.80,WNW,297,1.0,3.0,13,0.00,,,0.00,,2013-03-22 23:11:00,
2013-03-22 17:21:00,46.0,-2.0,29.80,WNW,294,9.0,26.0,13,0.00,,,0.00,,2013-03-22 23:21:00,
2013-03-22 17:32:00,46.0,-2.0,29.80,WNW,294,10.0,21.0,13,0.00,,,0.00,,2013-03-22 23:32:00,
2013-03-22 17:41:00,46.0,-2.0,29.80,WNW,294,10.0,21.0,13,0.00,,,0.00,,2013-03-22 23:41:00,
2013-03-22 17:52:00,47.0,-1.0,29.80,WNW,287,9.0,21.0,13,0.00,,,0.00,,2013-03-22 23:52:00,
2013-03-22 18:02:00,46.0,-4.0,29.80,SSW,213,10.0,15.0,12,0.00,,,0.00,,2013-03-23 00:02:00,
2013-03-22 18:11:00,46.0,-4.0,29.80,SSW,213,10.0,15.0,12,0.00,,,0.00,,2013-03-23 00:11:00,
2013-03-22 18:22:00,47.0,-1.0,29.80,SE,124,5.0,7.0,13,0.00,,,0.00,,2013-03-23 00:22:00,
2013-03-22 18:32:00,47.0,-1.0,29.79,South,170,6.0,7.0,13,0.00,,,0.00,,2013-03-23 00:32:00,
2013-03-22 18:41:00,45.0,-6.0,29.80,NW,317,9.0,21.0,11,0.00,,,0.00,,2013-03-23 00:41:00,
2013-03-22 18:51:00,45.0,-6.0,29.80,NW,317,9.0,21.0,11,0.00,,,0.00,,2013-03-23 00:51:00,
2013-03-22 19:03:00,39.0,-5.0,29.79,SSE,167,7.0,12.0,15,0.00,,,0.00,,2013-03-23 01:03:00,
2013-03-22 19:11:00,39.0,-5.0,29.79,SSE,167,7.0,12.0,15,0.00,,,0.00,,2013-03-23 01:11:00,
2013-03-22 19:22:00,38.0,-3.0,29.78,WNW,290,3.0,6.0,17,0.00,,,0.00,,2013-03-23 01:22:00,
2013-03-22 19:31:00,36.0,-5.0,29.79,WSW,245,6.0,8.0,17,0.00,,,0.00,,2013-03-23 01:31:00,
2013-03-22 19:42:00,36.0,-5.0,29.79,WSW,245,6.0,8.0,17,0.00,,,0.00,,2013-03-23 01:42:00,
2013-03-22 19:52:00,35.0,-4.0,29.79,WNW,291,2.0,3.0,18,0.00,,,0.00,,2013-03-23 01:52:00,
2013-03-22 20:02:00,34.0,-6.0,29.79,WNW,283,0.0,0.0,17,0.00,,,0.00,,2013-03-23 02:02:00,
2013-03-22 20:11:00,34.0,-6.0,29.79,WNW,283,0.0,0.0,17,0.00,,,0.00,,2013-03-23 02:11:00,
2013-03-22 20:22:00,33.0,-4.0,29.79,WSW,240,1.0,0.0,20,0.00,,,0.00,,2013-03-23 02:22:00,
2013-03-22 20:31:00,32.0,-3.0,29.79,West,279,0.0,1.0,21,0.00,,,0.00,,2013-03-23 02:31:00,
2013-03-22 20:42:00,32.0,-3.0,29.79,West,279,0.0,1.0,21,0.00,,,0.00,,2013-03-23 02:42:00,
2013-03-22 20:51:00,31.0,-2.0,29.79,NNW,327,0.0,0.0,23,0.00,,,0.00,,2013-03-23 02:51:00,
2013-03-22 21:02:00,30.0,-2.0,29.79,South,184,0.0,0.0,24,0.00,,,0.00,,2013-03-23 03:02:00,
2013-03-22 21:11:00,30.0,-2.0,29.79,South,184,0.0,0.0,24,0.00,,,0.00,,2013-03-23 03:11:00,
2013-03-22 21:22:00,30.0,-4.0,29.80,South,184,0.0,0.0,22,0.00,,,0.00,,2013-03-23 03:22:00,
2013-03-22 21:32:00,30.0,-2.0,29.81,North,355,1.0,6.0,24,0.00,,,0.00,,2013-03-23 03:32:00,
2013-03-22 21:42:00,30.0,-2.0,29.81,North,355,1.0,6.0,24,0.00,,,0.00,,2013-03-23 03:42:00,
2013-03-22 21:52:00,30.0,-1.0,29.81,West,279,1.0,8.0,26,0.00,,,0.00,,2013-03-23 03:52:00,
2013-03-22 22:02:00,29.0,-1.0,29.82,WSW,243,1.0,5.0,27,0.00,,,0.00,,2013-03-23 04:02:00,
2013-03-22 22:12:00,29.0,-1.0,29.82,WSW,243,1.0,5.0,27,0.00,,,0.00,,2013-03-23 04:12:00,
2013-03-22 22:22:00,29.0,-2.0,29.82,WNW,300,2.0,3.0,26,0.00,,,0.00,,2013-03-23 04:22:00,
2013-03-22 22:32:00,27.0,-2.0,29.82,NW,304,0.0,0.0,28,0.00,,,0.00,,2013-03-23 04:32:00,
2013-03-22 22:42:00,27.0,-2.0,29.82,NW,304,0.0,0.0,28,0.00,,,0.00,,2013-03-23 04:42:00,
2013-03-22 22:52:00,27.0,0.0,29.82,NW,305,0.0,0.0,30,0.00,,,0.00,,2013-03-23 04:52:00,
2013-03-22 23:02:00,27.0,-2.0,29.82,NW,307,0.0,0.0,27,0.00,,,0.00,,2013-03-23 05:02:00,
2013-03-22 23:11:00,27.0,-2.0,29.82,NW,307,0.0,0.0,27,0.00,,,0.00,,2013-03-23 05:11:00,
2013-03-22 23:21:00,26.0,-3.0,29.82,NW,307,0.0,0.0,28,0.00,,,0.00,,2013-03-23 05:21:00,
2013-03-22 23:32:00,25.0,-2.0,29.82,NW,307,0.0,0.0,30,0.00,,,0.00,,2013-03-23 05:32:00,
2013-03-22 23:42:00,25.0,-2.0,29.82,NW,307,0.0,0.0,30,0.00,,,0.00,,2013-03-23 05:42:00,
2013-03-22 23:52:00,25.0,0.0,29.82,NW,309,2.0,3.0,33,0.00,,,0.00,,2013-03-23 05:52:00,